Weather History for Madison, SD

Change the Weather History Date:

Sunday, February 3, 2013

  Actual Average Record
Temperature  
Mean Temperature 17 °F -  
Max Temperature 26 °F 24 °F 32 °F (2012)
Min Temperature 8 °F 3 °F 0 °F (2011)
Degree Days  
Heating Degree Days 48    
Moisture  
Dew Point 18 °F    
Average Humidity 100    
Maximum Humidity 100    
Minimum Humidity 93    
Precipitation  
Precipitation 0.00 in - - ()
Sea Level Pressure  
Sea Level Pressure 29.94 in    
Wind  
Wind Speed 13 mph (East)    
Max Wind Speed 23 mph    
Max Gust Speed 36 mph    
Visibility 10 miles    
Events Snow    
Averages and records for this station are not official NWS values.
T = Trace of Precipitation, MM = Missing Value Source: NWS Daily Summary

Daily Weather History Graph

Daily Weather History Graph

Search for Another Location

Airport:

Trip Planner

Search our weather history database for the weather conditions in past years. The results will help you decide how hot, cold, wet, or windy it might be!

Date:

Astronomy

Feb. 03, 2013 Rise Set
Actual Time 7:43 AM CST 5:41 PM CST
Civil Twilight 7:12 AM CST 6:12 PM CST
Nautical Twilight 6:38 AM CST 6:46 PM CST
Astronomical Twilight 6:04 AM CST 7:20 PM CST
Moon 1:12 AM CST (2/3) 11:18 AM CST (2/3)
Length of Visible Light 10h 59m
Length of Day
9h 58m
Waning Gibbous, 48% of the Moon is Illuminated
Feb 3
Waning Gibbous
Feb 10
New
Feb 17
First Quarter
Feb 25
Full
Mar 4
Last Quarter

Hourly Weather History & Observations

Time (CST) Temp. Windchill Dew Point Humidity Pressure Visibility Wind Dir Wind Speed Gust Speed Precip Events Conditions
12:00 AM 15.8 °F -2.3 °F 15.8 °F 100% 30.10 in 10.0 mi NW 23.0 mph 34.5 mph N/A Snow Light Snow
12:20 AM 15.8 °F -1.9 °F 15.8 °F 100% 30.11 in 10.0 mi NW 21.9 mph 35.7 mph N/A Snow Light Snow
12:40 AM 14.0 °F -3.4 °F 14.0 °F 100% 30.12 in 10.0 mi NW 19.6 mph 25.3 mph N/A   Unknown
1:00 AM 14.0 °F -3.0 °F 14.0 °F 100% 30.12 in 10.0 mi NW 18.4 mph 24.2 mph N/A   Unknown
1:20 AM 12.2 °F -4.8 °F 12.2 °F 100% 30.11 in 10.0 mi NW 17.3 mph - N/A   Unknown
1:40 AM 12.2 °F -4.3 °F 12.2 °F 100% 30.11 in 10.0 mi NW 16.1 mph - N/A   Unknown
2:00 AM 10.4 °F -6.6 °F 10.4 °F 100% 30.11 in 10.0 mi NW 16.1 mph - N/A   Unknown
2:20 AM 10.4 °F -5.4 °F 10.4 °F 100% 30.11 in 10.0 mi NW 13.8 mph - N/A   Unknown
2:40 AM 10.4 °F -6.0 °F 10.4 °F 100% 30.11 in 10.0 mi NW 15.0 mph - N/A   Unknown
3:00 AM 10.4 °F -6.0 °F 10.4 °F 100% 30.11 in 10.0 mi NW 15.0 mph - N/A   Unknown
3:20 AM 10.4 °F -6.0 °F 10.4 °F 100% 30.11 in 10.0 mi NW 15.0 mph - N/A   Unknown
3:40 AM 10.4 °F -5.4 °F 10.4 °F 100% 30.10 in 10.0 mi NW 13.8 mph - N/A   Unknown
4:00 AM 10.4 °F -4.1 °F 10.4 °F 100% 30.09 in 10.0 mi NW 11.5 mph - N/A   Unknown
4:20 AM 8.6 °F -4.7 °F 8.6 °F 100% 30.09 in 10.0 mi NW 9.2 mph - N/A   Unknown
4:40 AM 10.4 °F -0.4 °F 10.4 °F 100% 30.09 in 10.0 mi West 6.9 mph - N/A   Unknown
5:00 AM 10.4 °F -2.4 °F 10.4 °F 100% 30.08 in 10.0 mi WNW 9.2 mph - N/A   Unknown
5:20 AM 10.4 °F -2.4 °F 10.4 °F 100% 30.07 in 10.0 mi West 9.2 mph - N/A   Unknown
5:40 AM 10.4 °F -3.3 °F 10.4 °F 100% 30.06 in 10.0 mi West 10.4 mph - N/A   Unknown
6:00 AM 12.2 °F -0.2 °F 12.2 °F 100% 30.06 in 10.0 mi WNW 9.2 mph - N/A   Unknown
6:20 AM 12.2 °F 0.7 °F 12.2 °F 100% 30.05 in 10.0 mi West 8.1 mph - N/A   Unknown
6:40 AM 14.0 °F 3.9 °F 14.0 °F 100% 30.04 in 10.0 mi WNW 6.9 mph - N/A   Unknown
7:00 AM 14.0 °F 2.9 °F 14.0 °F 100% 30.04 in 10.0 mi West 8.1 mph - N/A   Unknown
7:20 AM 14.0 °F 2.9 °F 14.0 °F 100% 30.04 in 10.0 mi WSW 8.1 mph - N/A   Unknown
7:40 AM 14.0 °F 2.0 °F 14.0 °F 100% 30.04 in 10.0 mi WSW 9.2 mph - N/A   Unknown
8:00 AM 14.0 °F 2.9 °F 14.0 °F 100% 30.03 in 10.0 mi SW 8.1 mph - N/A   Unknown
8:20 AM 14.0 °F 5.1 °F 14.0 °F 100% 30.02 in 10.0 mi SW 5.8 mph - N/A   Unknown
8:40 AM 14.0 °F 6.5 °F 14.0 °F 100% 30.03 in 10.0 mi WSW 4.6 mph - N/A   Unknown
9:00 AM 17.6 °F - 15.8 °F 93% 30.03 in 10.0 mi Calm Calm - N/A   Unknown
9:20 AM 17.6 °F 12.3 °F 17.6 °F 100% 30.04 in 10.0 mi SW 3.5 mph - N/A   Unknown
9:40 AM 17.6 °F 12.3 °F 17.6 °F 100% 30.02 in 10.0 mi SW 3.5 mph - N/A   Unknown
10:00 AM 19.4 °F 11.5 °F 19.4 °F 100% 30.02 in 10.0 mi SSW 5.8 mph - N/A   Unknown
10:20 AM 19.4 °F 9.5 °F 19.4 °F 100% 30.00 in 10.0 mi South 8.1 mph - N/A   Unknown
10:40 AM 21.2 °F 12.6 °F 21.2 °F 100% 29.98 in 10.0 mi SSE 6.9 mph - N/A   Unknown
11:00 AM 23.0 °F 13.9 °F 23.0 °F 100% 29.96 in 10.0 mi SE 8.1 mph - N/A   Unknown
11:20 AM 23.0 °F 13.1 °F 23.0 °F 100% 29.95 in 10.0 mi SSE 9.2 mph - N/A   Unknown
11:40 AM 23.0 °F 13.1 °F 23.0 °F 100% 29.94 in 10.0 mi SSE 9.2 mph - N/A   Unknown
12:00 PM 24.8 °F 15.3 °F 23.0 °F 93% 29.93 in 10.0 mi SSE 9.2 mph - N/A   Unknown
12:20 PM 24.8 °F 15.3 °F 24.8 °F 100% 29.91 in 10.0 mi SE 9.2 mph - N/A   Unknown
12:40 PM 24.8 °F 15.3 °F 24.8 °F 100% 29.91 in 10.0 mi SSE 9.2 mph - N/A   Unknown
1:00 PM 24.8 °F 14.6 °F 24.8 °F 100% 29.89 in 10.0 mi SSE 10.4 mph - N/A   Unknown
1:20 PM 26.6 °F 16.2 °F 24.8 °F 93% 29.88 in 10.0 mi SE 11.5 mph - N/A   Unknown
1:40 PM 26.6 °F 16.2 °F 26.6 °F 100% 29.87 in 10.0 mi SE 11.5 mph - N/A   Unknown
2:00 PM 26.6 °F 15.2 °F 26.6 °F 100% 29.84 in 10.0 mi SE 13.8 mph - N/A   Unknown
2:20 PM 26.6 °F 15.7 °F 26.6 °F 100% 29.83 in 10.0 mi SE 12.7 mph - N/A   Unknown
2:40 PM 26.6 °F 16.8 °F 26.6 °F 100% 29.83 in 10.0 mi ESE 10.4 mph - N/A   Unknown
3:00 PM 26.6 °F 16.8 °F 26.6 °F 100% 29.83 in 10.0 mi ESE 10.4 mph - N/A   Unknown
3:20 PM 26.6 °F 16.2 °F 26.6 °F 100% 29.83 in 10.0 mi ESE 11.5 mph - N/A   Unknown
3:40 PM 26.6 °F 16.8 °F 26.6 °F 100% 29.82 in 10.0 mi ESE 10.4 mph - N/A   Unknown
4:00 PM 26.6 °F 16.8 °F 26.6 °F 100% 29.82 in 10.0 mi ESE 10.4 mph - N/A   Unknown
4:20 PM 26.6 °F 16.8 °F 26.6 °F 100% 29.81 in 10.0 mi ESE 10.4 mph - N/A   Unknown
4:40 PM 26.6 °F 16.2 °F 26.6 °F 100% 29.80 in 10.0 mi ESE 11.5 mph - N/A   Unknown
5:00 PM 26.6 °F 16.2 °F 26.6 °F 100% 29.79 in 10.0 mi ESE 11.5 mph - N/A   Unknown
5:20 PM 26.6 °F 16.8 °F 26.6 °F 100% 29.80 in 10.0 mi East 10.4 mph - N/A   Unknown
5:40 PM 26.6 °F 16.2 °F 26.6 °F 100% 29.80 in 10.0 mi East 11.5 mph - N/A   Unknown
6:00 PM 24.8 °F 14.6 °F 24.8 °F 100% 29.79 in 10.0 mi East 10.4 mph - N/A   Unknown
6:20 PM 24.8 °F 14.6 °F 24.8 °F 100% 29.79 in 10.0 mi East 10.4 mph - N/A   Unknown
6:40 PM 24.8 °F 14.6 °F 24.8 °F 100% 29.78 in 10.0 mi East 10.4 mph - N/A   Unknown
7:00 PM 24.8 °F 15.3 °F 24.8 °F 100% 29.79 in 10.0 mi East 9.2 mph - N/A   Unknown
7:20 PM 23.0 °F 12.4 °F 23.0 °F 100% 29.78 in 10.0 mi East 10.4 mph - N/A   Unknown
7:40 PM 23.0 °F 11.7 °F 23.0 °F 100% 29.78 in 10.0 mi East 11.5 mph - N/A   Unknown
8:00 PM 23.0 °F 11.7 °F 23.0 °F 100% 29.79 in 10.0 mi East 11.5 mph - N/A   Unknown
8:20 PM 21.2 °F 9.5 °F 21.2 °F 100% 29.79 in 10.0 mi East 11.5 mph - N/A   Unknown
8:40 PM 19.4 °F 6.0 °F 19.4 °F 100% 29.80 in 10.0 mi ENE 13.8 mph 19.6 mph N/A   Unknown
9:00 PM 19.4 °F 5.5 °F 19.4 °F 100% 29.80 in 10.0 mi ENE 15.0 mph - N/A   Unknown
9:20 PM 17.6 °F 2.2 °F 17.6 °F 100% 29.82 in 10.0 mi ENE 17.3 mph - N/A   Unknown
9:40 PM 15.8 °F -0.6 °F 15.8 °F 100% 29.82 in 10.0 mi NE 18.4 mph 23.0 mph N/A   Unknown
10:00 PM 14.0 °F -2.5 °F 14.0 °F 100% 29.82 in 10.0 mi ENE 17.3 mph 21.9 mph N/A   Unknown
10:20 PM 14.0 °F -2.5 °F 14.0 °F 100% 29.82 in 10.0 mi ENE 17.3 mph - N/A   Unknown
10:40 PM 14.0 °F -2.0 °F 14.0 °F 100% 29.83 in 10.0 mi NE 16.1 mph - N/A   Unknown
11:00 PM 12.2 °F -4.3 °F 12.2 °F 100% 29.84 in 10.0 mi NE 16.1 mph - N/A   Unknown
11:20 PM 12.2 °F -2.5 °F 12.2 °F 100% 29.85 in 10.0 mi NE 12.7 mph - N/A   Unknown
11:40 PM 12.2 °F -3.1 °F 12.2 °F 100% 29.85 in 10.0 mi NE 13.8 mph - N/A   Unknown